sensor_id;sensor_type;location;lat;lon;timestamp;P1;durP1;ratioP1;P2;durP2;ratioP2
54665;SDS011;40566;50.006;36.180;2022-11-15T00:03:15;9.98;;;3.40;;
54665;SDS011;40566;50.006;36.180;2022-11-15T00:08:17;10.15;;;3.85;;
54665;SDS011;40566;50.006;36.180;2022-11-15T00:13:18;8.05;;;2.90;;
54665;SDS011;40566;50.006;36.180;2022-11-15T00:18:19;7.43;;;3.17;;
54665;SDS011;40566;50.006;36.180;2022-11-15T00:23:19;7.25;;;2.47;;
54665;SDS011;40566;50.006;36.180;2022-11-15T00:28:20;10.63;;;3.45;;
54665;SDS011;40566;50.006;36.180;2022-11-15T00:33:20;8.90;;;3.42;;
54665;SDS011;40566;50.006;36.180;2022-11-15T00:38:21;7.35;;;3.28;;
54665;SDS011;40566;50.006;36.180;2022-11-15T00:43:21;6.43;;;2.78;;
54665;SDS011;40566;50.006;36.180;2022-11-15T00:48:22;16.60;;;3.50;;
54665;SDS011;40566;50.006;36.180;2022-11-15T00:53:23;16.45;;;3.58;;
54665;SDS011;40566;50.006;36.180;2022-11-15T00:58:23;7.03;;;3.05;;
54665;SDS011;40566;50.006;36.180;2022-11-15T01:03:24;11.55;;;3.85;;
54665;SDS011;40566;50.006;36.180;2022-11-15T01:08:24;8.20;;;3.40;;
54665;SDS011;40566;50.006;36.180;2022-11-15T01:13:25;9.07;;;3.72;;
54665;SDS011;40566;50.006;36.180;2022-11-15T01:18:25;21.13;;;4.47;;
54665;SDS011;40566;50.006;36.180;2022-11-15T01:23:26;15.10;;;3.70;;
54665;SDS011;40566;50.006;36.180;2022-11-15T01:28:30;21.92;;;4.75;;
54665;SDS011;40566;50.006;36.180;2022-11-15T01:33:35;11.00;;;3.75;;
54665;SDS011;40566;50.006;36.180;2022-11-15T01:38:36;9.30;;;3.30;;
54665;SDS011;40566;50.006;36.180;2022-11-15T01:43:38;7.47;;;3.47;;
54665;SDS011;40566;50.006;36.180;2022-11-15T01:48:39;41.55;;;9.52;;
54665;SDS011;40566;50.006;36.180;2022-11-15T01:53:40;84.22;;;17.35;;
54665;SDS011;40566;50.006;36.180;2022-11-15T01:58:45;38.63;;;9.98;;
54665;SDS011;40566;50.006;36.180;2022-11-15T02:03:49;30.65;;;8.15;;
54665;SDS011;40566;50.006;36.180;2022-11-15T02:08:56;15.60;;;5.25;;
54665;SDS011;40566;50.006;36.180;2022-11-15T02:13:58;23.00;;;6.80;;
54665;SDS011;40566;50.006;36.180;2022-11-15T02:19:18;23.88;;;7.18;;
54665;SDS011;40566;50.006;36.180;2022-11-15T02:41:03;51.97;;;14.45;;
54665;SDS011;40566;50.006;36.180;2022-11-15T02:46:09;25.05;;;7.93;;
54665;SDS011;40566;50.006;36.180;2022-11-15T02:51:50;34.63;;;9.73;;
54665;SDS011;40566;50.006;36.180;2022-11-15T02:56:53;28.02;;;7.75;;
54665;SDS011;40566;50.006;36.180;2022-11-15T03:07:30;30.85;;;10.95;;
54665;SDS011;40566;50.006;36.180;2022-11-15T03:12:44;17.50;;;5.95;;
54665;SDS011;40566;50.006;36.180;2022-11-15T03:17:53;12.00;;;4.50;;
54665;SDS011;40566;50.006;36.180;2022-11-15T03:23:06;16.27;;;5.78;;
54665;SDS011;40566;50.006;36.180;2022-11-15T03:28:09;38.10;;;10.80;;
54665;SDS011;40566;50.006;36.180;2022-11-15T03:33:16;20.77;;;7.13;;
54665;SDS011;40566;50.006;36.180;2022-11-15T03:38:22;17.10;;;6.47;;
54665;SDS011;40566;50.006;36.180;2022-11-15T03:48:56;18.77;;;6.20;;
54665;SDS011;40566;50.006;36.180;2022-11-15T03:54:05;14.77;;;5.55;;
54665;SDS011;40566;50.006;36.180;2022-11-15T03:59:06;16.88;;;5.88;;
54665;SDS011;40566;50.006;36.180;2022-11-15T04:04:06;12.32;;;5.43;;
54665;SDS011;40566;50.006;36.180;2022-11-15T04:09:07;13.98;;;5.10;;
54665;SDS011;40566;50.006;36.180;2022-11-15T04:14:26;10.85;;;4.38;;
54665;SDS011;40566;50.006;36.180;2022-11-15T04:19:45;12.38;;;4.63;;
54665;SDS011;40566;50.006;36.180;2022-11-15T04:25:04;14.85;;;4.18;;
54665;SDS011;40566;50.006;36.180;2022-11-15T04:30:05;14.00;;;5.43;;
54665;SDS011;40566;50.006;36.180;2022-11-15T04:35:25;13.70;;;5.20;;
54665;SDS011;40566;50.006;36.180;2022-11-15T04:46:03;14.57;;;5.47;;
54665;SDS011;40566;50.006;36.180;2022-11-15T04:51:03;16.27;;;5.57;;
54665;SDS011;40566;50.006;36.180;2022-11-15T04:56:04;17.17;;;6.68;;
54665;SDS011;40566;50.006;36.180;2022-11-15T05:01:08;15.85;;;6.60;;
54665;SDS011;40566;50.006;36.180;2022-11-15T05:06:10;16.63;;;6.47;;
54665;SDS011;40566;50.006;36.180;2022-11-15T05:11:10;14.40;;;4.63;;
54665;SDS011;40566;50.006;36.180;2022-11-15T05:16:11;13.02;;;4.80;;
54665;SDS011;40566;50.006;36.180;2022-11-15T05:21:13;16.42;;;6.65;;
54665;SDS011;40566;50.006;36.180;2022-11-15T05:26:15;13.52;;;6.50;;
54665;SDS011;40566;50.006;36.180;2022-11-15T05:31:17;17.83;;;8.05;;
54665;SDS011;40566;50.006;36.180;2022-11-15T05:36:29;14.52;;;6.88;;
54665;SDS011;40566;50.006;36.180;2022-11-15T05:41:36;33.97;;;12.55;;
54665;SDS011;40566;50.006;36.180;2022-11-15T05:46:39;19.20;;;7.38;;
54665;SDS011;40566;50.006;36.180;2022-11-15T05:51:42;24.02;;;9.75;;
54665;SDS011;40566;50.006;36.180;2022-11-15T05:56:45;24.08;;;10.50;;
54665;SDS011;40566;50.006;36.180;2022-11-15T06:01:46;23.52;;;10.30;;
54665;SDS011;40566;50.006;36.180;2022-11-15T06:06:47;39.00;;;13.68;;
54665;SDS011;40566;50.006;36.180;2022-11-15T06:11:48;38.03;;;14.38;;
54665;SDS011;40566;50.006;36.180;2022-11-15T06:16:48;46.67;;;16.48;;
54665;SDS011;40566;50.006;36.180;2022-11-15T06:21:49;45.88;;;17.17;;
54665;SDS011;40566;50.006;36.180;2022-11-15T06:26:50;49.53;;;17.27;;
54665;SDS011;40566;50.006;36.180;2022-11-15T06:31:52;52.15;;;17.63;;
54665;SDS011;40566;50.006;36.180;2022-11-15T06:36:53;41.67;;;17.00;;
54665;SDS011;40566;50.006;36.180;2022-11-15T06:41:53;33.67;;;11.85;;
54665;SDS011;40566;50.006;36.180;2022-11-15T06:46:54;25.80;;;7.85;;
54665;SDS011;40566;50.006;36.180;2022-11-15T06:51:58;15.48;;;5.13;;
54665;SDS011;40566;50.006;36.180;2022-11-15T06:56:58;12.48;;;5.05;;
54665;SDS011;40566;50.006;36.180;2022-11-15T07:01:59;13.15;;;4.80;;
54665;SDS011;40566;50.006;36.180;2022-11-15T07:06:59;15.52;;;4.90;;
54665;SDS011;40566;50.006;36.180;2022-11-15T07:12:00;17.83;;;4.63;;
54665;SDS011;40566;50.006;36.180;2022-11-15T07:17:03;17.95;;;5.68;;
54665;SDS011;40566;50.006;36.180;2022-11-15T07:22:05;14.65;;;5.13;;
54665;SDS011;40566;50.006;36.180;2022-11-15T07:27:05;16.23;;;5.55;;
54665;SDS011;40566;50.006;36.180;2022-11-15T07:32:06;12.68;;;5.18;;
54665;SDS011;40566;50.006;36.180;2022-11-15T07:37:06;31.85;;;6.75;;
54665;SDS011;40566;50.006;36.180;2022-11-15T07:42:07;16.73;;;6.57;;
54665;SDS011;40566;50.006;36.180;2022-11-15T07:47:28;25.23;;;9.05;;
54665;SDS011;40566;50.006;36.180;2022-11-15T07:52:29;20.05;;;8.32;;
54665;SDS011;40566;50.006;36.180;2022-11-15T07:57:29;21.80;;;7.95;;
54665;SDS011;40566;50.006;36.180;2022-11-15T08:02:30;22.40;;;9.23;;
54665;SDS011;40566;50.006;36.180;2022-11-15T08:07:30;17.40;;;7.10;;
54665;SDS011;40566;50.006;36.180;2022-11-15T08:12:31;21.33;;;7.97;;
54665;SDS011;40566;50.006;36.180;2022-11-15T08:17:32;19.23;;;7.40;;
54665;SDS011;40566;50.006;36.180;2022-11-15T08:22:34;25.83;;;7.57;;
54665;SDS011;40566;50.006;36.180;2022-11-15T08:27:34;27.58;;;8.75;;
54665;SDS011;40566;50.006;36.180;2022-11-15T08:32:35;18.92;;;7.38;;
54665;SDS011;40566;50.006;36.180;2022-11-15T08:37:35;17.83;;;6.88;;
54665;SDS011;40566;50.006;36.180;2022-11-15T08:42:36;22.27;;;7.00;;
54665;SDS011;40566;50.006;36.180;2022-11-15T08:47:37;25.15;;;8.20;;
54665;SDS011;40566;50.006;36.180;2022-11-15T08:52:37;17.20;;;7.28;;
54665;SDS011;40566;50.006;36.180;2022-11-15T08:57:38;19.23;;;7.07;;
54665;SDS011;40566;50.006;36.180;2022-11-15T09:02:39;21.02;;;5.70;;
54665;SDS011;40566;50.006;36.180;2022-11-15T09:07:40;16.85;;;4.75;;
54665;SDS011;40566;50.006;36.180;2022-11-15T09:12:41;7.72;;;3.08;;
54665;SDS011;40566;50.006;36.180;2022-11-15T09:17:41;12.48;;;4.25;;
54665;SDS011;40566;50.006;36.180;2022-11-15T09:22:42;11.27;;;4.20;;
54665;SDS011;40566;50.006;36.180;2022-11-15T09:27:43;11.55;;;4.10;;
54665;SDS011;40566;50.006;36.180;2022-11-15T09:32:43;13.55;;;4.05;;
54665;SDS011;40566;50.006;36.180;2022-11-15T09:37:44;9.98;;;4.10;;
54665;SDS011;40566;50.006;36.180;2022-11-15T09:53:42;12.07;;;4.10;;
54665;SDS011;40566;50.006;36.180;2022-11-15T10:03:56;11.73;;;4.57;;
54665;SDS011;40566;50.006;36.180;2022-11-15T10:09:19;9.90;;;4.18;;
54665;SDS011;40566;50.006;36.180;2022-11-15T10:14:26;12.90;;;4.43;;
54665;SDS011;40566;50.006;36.180;2022-11-15T10:19:35;11.82;;;4.20;;
54665;SDS011;40566;50.006;36.180;2022-11-15T10:24:42;12.45;;;4.47;;
54665;SDS011;40566;50.006;36.180;2022-11-15T10:29:45;12.45;;;4.93;;
54665;SDS011;40566;50.006;36.180;2022-11-15T10:34:50;13.93;;;5.03;;
54665;SDS011;40566;50.006;36.180;2022-11-15T10:40:04;15.48;;;3.53;;
54665;SDS011;40566;50.006;36.180;2022-11-15T10:45:22;9.52;;;3.65;;
54665;SDS011;40566;50.006;36.180;2022-11-15T10:50:29;7.65;;;2.72;;
54665;SDS011;40566;50.006;36.180;2022-11-15T10:55:32;16.35;;;3.65;;
54665;SDS011;40566;50.006;36.180;2022-11-15T11:00:37;14.27;;;4.70;;
54665;SDS011;40566;50.006;36.180;2022-11-15T11:05:41;12.98;;;4.15;;
54665;SDS011;40566;50.006;36.180;2022-11-15T11:10:55;9.60;;;3.42;;
54665;SDS011;40566;50.006;36.180;2022-11-15T11:26:49;42.55;;;15.32;;
54665;SDS011;40566;50.006;36.180;2022-11-15T11:32:07;58.90;;;24.17;;
54665;SDS011;40566;50.006;36.180;2022-11-15T11:48:10;31.20;;;6.63;;
54665;SDS011;40566;50.006;36.180;2022-11-15T11:53:24;13.13;;;4.50;;
54665;SDS011;40566;50.006;36.180;2022-11-15T11:58:40;29.77;;;9.67;;
54665;SDS011;40566;50.006;36.180;2022-11-15T12:03:48;23.30;;;7.13;;
54665;SDS011;40566;50.006;36.180;2022-11-15T12:09:04;18.63;;;5.40;;
54665;SDS011;40566;50.006;36.180;2022-11-15T12:14:16;26.30;;;8.57;;
54665;SDS011;40566;50.006;36.180;2022-11-15T12:19:32;10.50;;;3.85;;
54665;SDS011;40566;50.006;36.180;2022-11-15T12:29:53;11.02;;;3.88;;
54665;SDS011;40566;50.006;36.180;2022-11-15T12:34:56;14.18;;;4.05;;
54665;SDS011;40566;50.006;36.180;2022-11-15T12:40:16;13.50;;;5.15;;
54665;SDS011;40566;50.006;36.180;2022-11-15T12:45:27;12.27;;;3.78;;
54665;SDS011;40566;50.006;36.180;2022-11-15T13:06:39;14.20;;;4.70;;
54665;SDS011;40566;50.006;36.180;2022-11-15T13:11:43;18.95;;;7.10;;
54665;SDS011;40566;50.006;36.180;2022-11-15T13:16:46;21.33;;;6.32;;
54665;SDS011;40566;50.006;36.180;2022-11-15T13:21:49;29.42;;;6.82;;
54665;SDS011;40566;50.006;36.180;2022-11-15T13:27:14;14.80;;;5.03;;
54665;SDS011;40566;50.006;36.180;2022-11-15T13:32:18;14.45;;;4.93;;
54665;SDS011;40566;50.006;36.180;2022-11-15T13:42:20;13.98;;;4.72;;
54665;SDS011;40566;50.006;36.180;2022-11-15T13:47:21;18.52;;;6.25;;
54665;SDS011;40566;50.006;36.180;2022-11-15T13:52:21;14.45;;;4.50;;
54665;SDS011;40566;50.006;36.180;2022-11-15T13:57:25;14.45;;;5.10;;
54665;SDS011;40566;50.006;36.180;2022-11-15T14:02:35;18.75;;;5.35;;
54665;SDS011;40566;50.006;36.180;2022-11-15T14:07:37;23.80;;;6.90;;
